createdAt,value
2023-04-08T00:00:21.155Z,2.93
2023-04-08T00:02:23.969Z,3.00
2023-04-08T00:04:27.515Z,3.00
2023-04-08T00:06:31.626Z,2.80
2023-04-08T00:08:34.529Z,2.77
2023-04-08T00:10:37.422Z,2.87
2023-04-08T00:12:40.417Z,2.77
2023-04-08T00:14:43.280Z,2.70
2023-04-08T00:16:47.292Z,2.70
2023-04-08T00:18:50.327Z,2.43
2023-04-08T00:20:53.579Z,2.80
2023-04-08T00:22:56.308Z,2.57
2023-04-08T00:24:59.017Z,2.50
2023-04-08T00:27:02.754Z,2.80
2023-04-08T00:29:05.765Z,2.60
2023-04-08T00:31:08.480Z,3.13
2023-04-08T00:33:12.475Z,2.60
2023-04-08T00:35:15.184Z,2.57
2023-04-08T00:37:18.509Z,2.77
2023-04-08T00:39:21.197Z,2.43
2023-04-08T00:41:23.879Z,2.77
2023-04-08T00:43:27.063Z,2.30
2023-04-08T00:45:30.495Z,2.30
2023-04-08T00:47:33.198Z,2.27
2023-04-08T00:49:37.165Z,2.70
2023-04-08T00:51:39.818Z,2.20
2023-04-08T00:53:42.773Z,2.50
2023-04-08T00:55:45.750Z,2.40
2023-04-08T00:57:48.476Z,2.47
2023-04-08T00:59:51.125Z,2.40
2023-04-08T01:01:57.741Z,2.43
2023-04-08T01:04:03.497Z,2.33
2023-04-08T01:06:10.645Z,2.40
2023-04-08T01:08:13.741Z,1.77
2023-04-08T01:10:18.235Z,2.10
2023-04-08T01:12:22.537Z,2.07
2023-04-08T01:14:26.544Z,2.27
2023-04-08T01:16:29.284Z,2.30
2023-04-08T01:18:32.305Z,2.10
2023-04-08T01:20:34.975Z,1.70
2023-04-08T01:22:45.088Z,2.00
2023-04-08T01:24:47.834Z,2.10
2023-04-08T01:26:52.325Z,1.70
2023-04-08T01:28:56.067Z,2.03
2023-04-08T01:30:59.368Z,1.90
2023-04-08T01:33:02.981Z,2.00
2023-04-08T01:35:06.497Z,1.70
2023-04-08T01:37:09.182Z,1.70
2023-04-08T01:39:11.903Z,2.00
2023-04-08T01:41:14.572Z,1.93
2023-04-08T01:43:19.152Z,1.70
2023-04-08T01:45:21.823Z,2.00
2023-04-08T01:47:24.843Z,2.07
2023-04-08T01:49:27.580Z,2.03
2023-04-08T01:51:31.816Z,1.90
2023-04-08T01:53:34.504Z,1.93
2023-04-08T01:55:37.147Z,1.67
2023-04-08T01:57:40.776Z,1.60
2023-04-08T01:59:45.202Z,2.07
2023-04-08T02:01:47.928Z,1.70
2023-04-08T02:03:52.226Z,1.90
2023-04-08T02:05:54.992Z,1.50
2023-04-08T02:07:58.098Z,1.70
2023-04-08T02:10:00.807Z,1.80
2023-04-08T02:12:03.477Z,1.70
2023-04-08T02:14:06.359Z,1.70
2023-04-08T02:16:13.839Z,1.47
2023-04-08T02:18:17.425Z,1.70
2023-04-08T02:20:21.419Z,1.90
2023-04-08T02:22:26.719Z,1.63
2023-04-08T02:24:30.312Z,1.60
2023-04-08T02:26:34.306Z,1.30
2023-04-08T02:28:37.046Z,1.30
2023-04-08T02:30:43.443Z,1.53
2023-04-08T02:32:48.366Z,1.20
2023-04-08T02:34:51.051Z,1.80
2023-04-08T02:36:53.730Z,1.70
2023-04-08T02:38:56.955Z,1.90
2023-04-08T02:41:00.785Z,1.60
2023-04-08T02:43:03.475Z,1.60
2023-04-08T02:45:06.723Z,1.50
2023-04-08T02:47:09.778Z,1.07
2023-04-08T02:49:13.716Z,1.30
2023-04-08T02:51:16.405Z,1.20
2023-04-08T02:53:19.096Z,1.50
2023-04-08T02:55:22.076Z,1.37
2023-04-08T02:57:24.716Z,1.23
2023-04-08T02:59:27.401Z,1.47
2023-04-08T03:01:30.525Z,1.43
2023-04-08T03:03:33.879Z,1.40
2023-04-08T03:05:37.897Z,1.40
2023-04-08T03:07:40.572Z,1.50
2023-04-08T03:09:43.261Z,1.10
2023-04-08T03:11:52.512Z,1.53
2023-04-08T03:13:55.191Z,1.20
2023-04-08T03:15:57.849Z,1.50
2023-04-08T03:18:01.040Z,1.40
2023-04-08T03:20:05.033Z,1.40
2023-04-08T03:22:11.169Z,1.37
2023-04-08T03:24:13.820Z,1.30
2023-04-08T03:26:16.483Z,1.40
2023-04-08T03:28:19.776Z,1.40
2023-04-08T03:30:22.627Z,1.63
2023-04-08T03:32:25.699Z,1.23
2023-04-08T03:34:28.369Z,1.50
2023-04-08T03:36:31.480Z,1.30
2023-04-08T03:38:35.704Z,1.40
2023-04-08T03:40:38.397Z,1.60
2023-04-08T03:42:41.262Z,1.63
2023-04-08T03:44:44.311Z,1.23
2023-04-08T03:46:46.932Z,1.80
2023-04-08T03:48:49.955Z,1.40
2023-04-08T03:50:52.844Z,1.47
2023-04-08T03:52:55.836Z,1.40
2023-04-08T03:55:00.115Z,1.30
2023-04-08T03:57:02.908Z,1.47
2023-04-08T03:59:05.677Z,1.30
2023-04-08T04:01:08.627Z,1.40
2023-04-08T04:03:13.239Z,1.33
2023-04-08T04:05:16.040Z,1.33
2023-04-08T04:07:18.740Z,1.23
2023-04-08T04:09:21.820Z,1.33
2023-04-08T04:11:26.432Z,1.50
2023-04-08T04:13:29.087Z,1.80
2023-04-08T04:15:31.770Z,1.40
2023-04-08T04:17:35.059Z,1.60
2023-04-08T04:19:37.773Z,1.50
2023-04-08T04:21:40.431Z,1.20
2023-04-08T04:23:43.119Z,1.30
2023-04-08T04:25:46.123Z,1.40
2023-04-08T04:27:50.064Z,1.03
2023-04-08T04:29:52.952Z,1.60
2023-04-08T04:31:55.640Z,1.90
2023-04-08T04:33:58.771Z,1.40
2023-04-08T04:36:01.530Z,1.37
2023-04-08T04:38:05.660Z,1.47
2023-04-08T04:40:08.979Z,1.37
2023-04-08T04:42:12.168Z,1.50
2023-04-08T04:44:16.355Z,1.70
2023-04-08T04:46:19.147Z,1.50
2023-04-08T04:48:21.862Z,1.40
2023-04-08T04:50:24.874Z,1.53
2023-04-08T04:52:27.656Z,1.60
2023-04-08T04:54:30.576Z,1.60
2023-04-08T04:56:33.301Z,1.50
2023-04-08T04:58:36.608Z,1.47
2023-04-08T05:00:40.545Z,1.63
2023-04-08T05:02:43.387Z,1.40
2023-04-08T05:04:46.277Z,1.30
2023-04-08T05:06:49.381Z,1.50
2023-04-08T05:08:52.527Z,1.53
2023-04-08T05:10:56.093Z,1.60
2023-04-08T05:12:58.830Z,1.50
2023-04-08T05:15:02.160Z,1.70
2023-04-08T05:17:06.584Z,1.60
2023-04-08T05:19:09.318Z,1.30
2023-04-08T05:21:11.974Z,1.73
2023-04-08T05:23:15.606Z,1.33
2023-04-08T05:25:18.366Z,1.67
2023-04-08T05:27:21.645Z,1.57
2023-04-08T05:29:24.497Z,1.30
2023-04-08T05:31:27.996Z,1.33
2023-04-08T05:33:32.049Z,1.60
2023-04-08T05:35:34.857Z,1.40
2023-04-08T05:37:37.650Z,1.53
2023-04-08T05:39:40.403Z,1.40
2023-04-08T05:41:43.099Z,1.60
2023-04-08T05:43:46.022Z,1.40
2023-04-08T05:45:48.849Z,1.40
2023-04-08T05:47:52.039Z,1.50
2023-04-08T05:49:56.317Z,1.40
2023-04-08T05:51:59.020Z,1.60
2023-04-08T05:54:01.696Z,1.50
2023-04-08T05:56:04.968Z,1.50
2023-04-08T05:58:07.672Z,1.40
2023-04-08T06:00:11.408Z,1.20
2023-04-08T06:02:14.159Z,1.80
2023-04-08T06:04:17.879Z,1.20
2023-04-08T06:06:21.938Z,1.80
2023-04-08T06:08:24.776Z,1.67
2023-04-08T06:10:27.736Z,1.57
2023-04-08T06:12:30.878Z,1.50
2023-04-08T06:14:33.551Z,1.30
2023-04-08T06:16:36.352Z,1.60
2023-04-08T06:18:39.138Z,1.47
2023-04-08T06:20:42.298Z,1.33
2023-04-08T06:22:46.630Z,1.37
2023-04-08T06:24:49.515Z,1.77
2023-04-08T06:26:52.566Z,1.60
2023-04-08T06:28:55.616Z,1.27
2023-04-08T06:30:58.355Z,1.20
2023-04-08T06:33:01.487Z,1.43
2023-04-08T06:35:04.327Z,1.47
2023-04-08T06:37:07.531Z,1.50
2023-04-08T06:39:11.588Z,1.10
2023-04-08T06:41:14.330Z,1.60
2023-04-08T06:43:16.974Z,1.57
2023-04-08T06:45:20.384Z,1.23
2023-04-08T06:47:23.313Z,1.60
2023-04-08T06:49:27.100Z,1.57
2023-04-08T06:51:30.029Z,1.33
2023-04-08T06:53:33.689Z,1.07
2023-04-08T06:55:37.627Z,1.20
2023-04-08T06:57:40.308Z,1.33
2023-04-08T06:59:43.157Z,1.30
2023-04-08T07:01:46.735Z,1.30
2023-04-08T07:03:49.607Z,1.10
2023-04-08T07:05:52.321Z,1.00
2023-04-08T07:07:55.003Z,1.30
2023-04-08T07:09:58.009Z,1.00
2023-04-08T07:12:02.003Z,1.20
2023-04-08T07:14:04.983Z,1.20
2023-04-08T07:16:07.956Z,1.17
2023-04-08T07:18:12.130Z,0.90
2023-04-08T07:20:14.885Z,1.23
2023-04-08T07:22:18.483Z,1.10
2023-04-08T07:24:21.182Z,1.20
2023-04-08T07:26:24.332Z,1.27
2023-04-08T07:28:29.022Z,1.30
2023-04-08T07:30:32.072Z,1.17
2023-04-08T07:32:35.071Z,1.00
2023-04-08T07:34:38.490Z,1.20
2023-04-08T07:36:41.384Z,1.00
2023-04-08T07:38:44.038Z,1.10
2023-04-08T07:40:46.827Z,1.00
2023-04-08T07:42:49.992Z,1.27
2023-04-08T07:44:54.256Z,0.87
2023-04-08T07:46:56.926Z,1.20
2023-04-08T07:48:59.627Z,1.20
2023-04-08T07:51:08.328Z,1.10
2023-04-08T07:53:13.684Z,1.23
2023-04-08T07:55:16.646Z,1.00
2023-04-08T07:57:19.690Z,1.13
2023-04-08T07:59:22.895Z,1.07
2023-04-08T08:01:32.487Z,0.90
2023-04-08T08:03:35.477Z,1.10
2023-04-08T08:05:38.323Z,1.20
2023-04-08T08:07:41.530Z,1.27
2023-04-08T08:09:44.259Z,1.10
2023-04-08T08:11:49.345Z,1.10
2023-04-08T08:13:52.851Z,1.10
2023-04-08T08:15:56.052Z,0.80
2023-04-08T08:18:00.377Z,1.20
2023-04-08T08:20:04.449Z,1.10
2023-04-08T08:22:07.583Z,1.20
2023-04-08T08:24:10.307Z,0.97
2023-04-08T08:26:12.988Z,1.20
2023-04-08T08:28:16.069Z,1.13
2023-04-08T08:30:21.182Z,1.20
2023-04-08T08:32:23.858Z,1.20
2023-04-08T08:34:28.246Z,1.13
2023-04-08T08:36:32.755Z,1.20
2023-04-08T08:38:36.197Z,1.10
2023-04-08T08:40:38.888Z,1.00
2023-04-08T08:42:41.874Z,1.10
2023-04-08T08:44:44.755Z,1.03
2023-04-08T08:46:48.257Z,1.10
2023-04-08T08:48:51.284Z,0.90
2023-04-08T08:50:55.640Z,1.40
2023-04-08T08:52:58.805Z,1.10
2023-04-08T08:55:04.446Z,1.17
2023-04-08T08:57:25.799Z,0.80
2023-04-08T08:59:29.656Z,0.90
2023-04-08T09:01:36.339Z,1.17
2023-04-08T09:03:45.488Z,1.10
2023-04-08T09:05:50.767Z,0.90
2023-04-08T09:07:56.527Z,1.00
2023-04-08T09:10:00.021Z,1.43
2023-04-08T09:12:04.840Z,0.90
2023-04-08T09:14:09.468Z,1.20
2023-04-08T09:16:12.822Z,1.13
2023-04-08T09:18:23.294Z,1.27
2023-04-08T09:20:26.529Z,1.07
2023-04-08T09:22:29.239Z,1.20
2023-04-08T09:24:33.220Z,1.10
2023-04-08T09:26:37.348Z,1.03
2023-04-08T09:28:40.341Z,1.10
2023-04-08T09:30:43.011Z,1.10
2023-04-08T09:32:49.578Z,1.20
2023-04-08T09:34:52.586Z,1.30
2023-04-08T09:36:55.740Z,1.17
2023-04-08T09:38:58.904Z,0.97
2023-04-08T09:41:03.755Z,1.13
2023-04-08T09:43:06.579Z,1.20
2023-04-08T09:45:09.867Z,1.20
2023-04-08T09:47:16.850Z,1.20
2023-04-08T09:49:23.701Z,1.00
2023-04-08T09:51:26.403Z,1.10
2023-04-08T09:53:31.953Z,0.87
2023-04-08T09:55:35.015Z,1.10
2023-04-08T09:57:43.266Z,1.07
2023-04-08T09:59:53.710Z,1.00
2023-04-08T10:01:56.473Z,0.83
2023-04-08T10:03:59.695Z,1.07
2023-04-08T10:06:03.372Z,1.10
2023-04-08T10:08:06.375Z,1.00
2023-04-08T10:10:11.038Z,1.10
2023-04-08T10:12:14.180Z,1.00
2023-04-08T10:14:18.225Z,1.00
2023-04-08T10:16:23.116Z,1.10
2023-04-08T10:18:33.221Z,0.90
2023-04-08T10:20:43.910Z,1.30
2023-04-08T10:22:48.739Z,0.93
2023-04-08T10:25:19.314Z,1.47
2023-04-08T10:27:39.380Z,1.10
2023-04-08T10:29:43.825Z,1.17
2023-04-08T10:31:46.956Z,1.33
2023-04-08T10:33:50.612Z,1.20
2023-04-08T10:36:03.014Z,1.30
2023-04-08T10:38:05.764Z,1.00
2023-04-08T10:40:09.491Z,1.10
2023-04-08T10:42:13.384Z,0.80
2023-04-08T10:44:17.688Z,1.20
2023-04-08T10:46:22.393Z,0.83
2023-04-08T10:48:25.757Z,1.40
2023-04-08T10:50:28.498Z,1.40
2023-04-08T10:52:31.454Z,1.10
2023-04-08T10:54:34.639Z,1.10
2023-04-08T10:56:37.820Z,1.10
2023-04-08T10:58:49.440Z,1.30
2023-04-08T11:00:52.792Z,1.13
2023-04-08T11:02:57.151Z,1.30
2023-04-08T11:05:00.040Z,1.10
2023-04-08T11:07:03.284Z,1.00
2023-04-08T11:09:06.449Z,1.03
2023-04-08T11:11:11.071Z,1.10
2023-04-08T11:13:13.895Z,1.10
2023-04-08T11:15:17.004Z,1.20
2023-04-08T11:17:20.111Z,1.30
2023-04-08T11:19:25.441Z,1.50
2023-04-08T11:21:29.761Z,1.40
2023-04-08T11:23:32.891Z,1.20
2023-04-08T11:25:35.694Z,1.50
2023-04-08T11:27:39.533Z,1.07
2023-04-08T11:29:43.409Z,1.17
2023-04-08T11:31:47.528Z,1.40
2023-04-08T11:33:50.947Z,1.27
2023-04-08T11:35:55.501Z,1.00
2023-04-08T11:37:58.959Z,1.70
2023-04-08T11:40:02.254Z,1.63
2023-04-08T11:42:05.125Z,1.60
2023-04-08T11:44:08.068Z,1.53
2023-04-08T11:46:12.775Z,1.40
2023-04-08T11:48:16.431Z,1.70
2023-04-08T11:50:25.603Z,1.47
2023-04-08T11:52:45.318Z,2.07
2023-04-08T11:54:48.082Z,1.80
2023-04-08T11:56:52.358Z,1.80
2023-04-08T11:58:55.042Z,1.63
2023-04-08T12:00:58.574Z,1.70
2023-04-08T12:03:01.365Z,1.87
2023-04-08T12:05:04.135Z,1.70
2023-04-08T12:07:07.309Z,1.60
2023-04-08T12:09:12.891Z,1.70
2023-04-08T12:11:19.847Z,1.60
2023-04-08T12:13:22.934Z,2.20
2023-04-08T12:15:26.091Z,2.20
2023-04-08T12:17:29.220Z,1.33
2023-04-08T12:19:34.153Z,1.80
2023-04-08T12:21:38.218Z,2.00
2023-04-08T12:23:40.948Z,1.83
2023-04-08T12:25:47.172Z,1.80
2023-04-08T12:27:49.825Z,2.03
2023-04-08T12:29:53.383Z,1.70
2023-04-08T12:31:59.279Z,1.80
2023-04-08T12:34:05.657Z,2.00
2023-04-08T12:36:10.033Z,1.87
2023-04-08T12:38:14.012Z,2.10
2023-04-08T12:40:19.099Z,1.70
2023-04-08T12:42:23.490Z,1.87
2023-04-08T12:44:26.360Z,2.00
2023-04-08T12:46:29.426Z,2.00
2023-04-08T12:48:33.136Z,2.20
2023-04-08T12:50:35.912Z,2.00
2023-04-08T12:52:38.568Z,2.10
2023-04-08T12:54:44.553Z,1.93
2023-04-08T12:56:50.882Z,1.90
2023-04-08T12:58:59.056Z,2.20
2023-04-08T13:01:02.120Z,1.87
2023-04-08T13:03:06.105Z,2.13
2023-04-08T13:05:09.301Z,2.40
2023-04-08T13:07:12.015Z,2.17
2023-04-08T13:09:15.460Z,2.30
2023-04-08T13:11:19.001Z,2.30
2023-04-08T13:13:21.744Z,2.63
2023-04-08T13:15:27.623Z,2.33
2023-04-08T13:17:33.654Z,2.20
